ENY3883 MYAM-KMIA
Flight info
| Callsign | ENY3883 |
|---|---|
| Flight time | 0h 41m |
| Altitude | 18000 |
| Route | DCT REPEE BNFSH3 |
| Aircraft | E75L/M-RNAV/L |
Departure
| Time | 2026-04-16 02:35 |
|---|---|
| Airport | Leonard M. Thompson International Airport (MYAM) |
Arrival
| Time | 2026-04-16 03:16 |
|---|---|
| Airport | Miami International Airport (KMIA) |
| Time | Latitude | Longitude | Altitude | Speed | Heading |
|---|---|---|---|---|---|
| 2026-04-16 02:05 | 26.51282 | -77.07755 | 14 ft | 0 kts | 14° |
| 2026-04-16 02:29 | 26.51284 | -77.07748 | 14 ft | 1 kts | 118° |
| 2026-04-16 02:29 | 26.51262 | -77.07758 | 14 ft | 7 kts | 209° |
| 2026-04-16 02:30 | 26.51213 | -77.07819 | 14 ft | 13 kts | 239° |
| 2026-04-16 02:30 | 26.51157 | -77.07932 | 16 ft | 17 kts | 253° |
| 2026-04-16 02:30 | 26.51150 | -77.08024 | 16 ft | 10 kts | 269° |
| 2026-04-16 02:30 | 26.51148 | -77.08128 | 14 ft | 16 kts | 267° |
| 2026-04-16 02:31 | 26.51143 | -77.08282 | 14 ft | 21 kts | 269° |
| 2026-04-16 02:31 | 26.51142 | -77.08356 | 14 ft | 5 kts | 269° |
| 2026-04-16 02:31 | 26.51141 | -77.08404 | 14 ft | 6 kts | 267° |
| 2026-04-16 02:31 | 26.51138 | -77.08486 | 14 ft | 16 kts | 269° |
| 2026-04-16 02:32 | 26.51134 | -77.08626 | 14 ft | 18 kts | 267° |
| 2026-04-16 02:32 | 26.51131 | -77.08775 | 12 ft | 20 kts | 270° |
| 2026-04-16 02:32 | 26.51127 | -77.08941 | 10 ft | 21 kts | 265° |
| 2026-04-16 02:32 | 26.51121 | -77.09110 | 10 ft | 22 kts | 269° |
| 2026-04-16 02:33 | 26.51117 | -77.09287 | 10 ft | 23 kts | 269° |
| 2026-04-16 02:33 | 26.51103 | -77.09463 | 11 ft | 22 kts | 228° |
| 2026-04-16 02:33 | 26.50991 | -77.09448 | 10 ft | 14 kts | 104° |
| 2026-04-16 02:33 | 26.50990 | -77.09418 | 10 ft | 0 kts | 88° |
| 2026-04-16 02:34 | 26.51001 | -77.09132 | 10 ft | 76 kts | 90° |
| 2026-04-16 02:34 | 26.51017 | -77.08267 | 46 ft | 136 kts | 87° |
| 2026-04-16 02:34 | 26.51018 | -77.07172 | 492 ft | 156 kts | 87° |
| 2026-04-16 02:35 | 26.51028 | -77.05807 | 1029 ft | 176 kts | 87° |
| 2026-04-16 02:35 | 26.51035 | -77.04520 | 1960 ft | 170 kts | 87° |
| 2026-04-16 02:35 | 26.51327 | -77.03288 | 2720 ft | 172 kts | 50° |
| 2026-04-16 02:35 | 26.52387 | -77.02680 | 3365 ft | 178 kts | 8° |
| 2026-04-16 02:36 | 26.53709 | -77.02744 | 4018 ft | 191 kts | 360° |
| 2026-04-16 02:36 | 26.55028 | -77.02881 | 4791 ft | 192 kts | 359° |
| 2026-04-16 02:36 | 26.56378 | -77.03011 | 5521 ft | 195 kts | 359° |
| 2026-04-16 02:36 | 26.57728 | -77.03348 | 5382 ft | 211 kts | 328° |
| 2026-04-16 02:37 | 26.58491 | -77.04528 | 5392 ft | 203 kts | 283° |
| 2026-04-16 02:37 | 26.58313 | -77.06128 | 5631 ft | 211 kts | 244° |
| 2026-04-16 02:37 | 26.57640 | -77.07633 | 5548 ft | 212 kts | 243° |
| 2026-04-16 02:37 | 26.56964 | -77.09116 | 5599 ft | 219 kts | 243° |
| 2026-04-16 02:38 | 26.56259 | -77.10658 | 6234 ft | 218 kts | 243° |
| 2026-04-16 02:38 | 26.55568 | -77.12161 | 6868 ft | 217 kts | 243° |
| 2026-04-16 02:38 | 26.54874 | -77.13661 | 7461 ft | 219 kts | 243° |
| 2026-04-16 02:38 | 26.54165 | -77.15185 | 8049 ft | 222 kts | 243° |
| 2026-04-16 02:39 | 26.53396 | -77.16830 | 8131 ft | 252 kts | 243° |
| 2026-04-16 02:39 | 26.52544 | -77.18659 | 8222 ft | 279 kts | 245° |
| 2026-04-16 02:39 | 26.52207 | -77.20863 | 8232 ft | 294 kts | 280° |
| 2026-04-16 02:39 | 26.52719 | -77.23069 | 8229 ft | 296 kts | 284° |
| 2026-04-16 02:40 | 26.53061 | -77.25285 | 8267 ft | 279 kts | 279° |
| 2026-04-16 02:40 | 26.53261 | -77.27479 | 8355 ft | 293 kts | 276° |
| 2026-04-16 02:40 | 26.53402 | -77.29803 | 8914 ft | 299 kts | 275° |
| 2026-04-16 02:40 | 26.53510 | -77.32119 | 9606 ft | 301 kts | 275° |
| 2026-04-16 02:41 | 26.53605 | -77.34464 | 10266 ft | 303 kts | 274° |
| 2026-04-16 02:41 | 26.53695 | -77.36882 | 10814 ft | 311 kts | 275° |
| 2026-04-16 02:41 | 26.53785 | -77.39342 | 11332 ft | 319 kts | 275° |
| 2026-04-16 02:41 | 26.53873 | -77.41825 | 11819 ft | 328 kts | 275° |
| 2026-04-16 02:42 | 26.53964 | -77.44410 | 12309 ft | 337 kts | 274° |
| 2026-04-16 02:42 | 26.54055 | -77.47049 | 12870 ft | 343 kts | 275° |
| 2026-04-16 02:42 | 26.54147 | -77.49724 | 13471 ft | 347 kts | 275° |
| 2026-04-16 02:42 | 26.54241 | -77.52442 | 14119 ft | 350 kts | 275° |
| 2026-04-16 02:43 | 26.54333 | -77.55154 | 14783 ft | 353 kts | 275° |
| 2026-04-16 02:43 | 26.54427 | -77.57893 | 15390 ft | 356 kts | 275° |
| 2026-04-16 02:43 | 26.54522 | -77.60687 | 16017 ft | 359 kts | 275° |
| 2026-04-16 02:43 | 26.54615 | -77.63455 | 16629 ft | 361 kts | 275° |
| 2026-04-16 02:44 | 26.54709 | -77.66282 | 17194 ft | 364 kts | 275° |
| 2026-04-16 02:44 | 26.54803 | -77.69128 | 17755 ft | 367 kts | 275° |
| 2026-04-16 02:44 | 26.54897 | -77.71960 | 18135 ft | 367 kts | 275° |
| 2026-04-16 02:44 | 26.54993 | -77.74869 | 18188 ft | 382 kts | 275° |
| 2026-04-16 02:45 | 26.55092 | -77.77891 | 18197 ft | 394 kts | 275° |
| 2026-04-16 02:45 | 26.55194 | -77.81019 | 18202 ft | 409 kts | 275° |
| 2026-04-16 02:45 | 26.55300 | -77.84308 | 18201 ft | 425 kts | 274° |
| 2026-04-16 02:45 | 26.55405 | -77.87619 | 18192 ft | 430 kts | 274° |
| 2026-04-16 02:46 | 26.55511 | -77.90987 | 18185 ft | 430 kts | 274° |
| 2026-04-16 02:46 | 26.55616 | -77.94330 | 18187 ft | 429 kts | 274° |
| 2026-04-16 02:46 | 26.55721 | -77.97691 | 18185 ft | 429 kts | 274° |
| 2026-04-16 02:46 | 26.55824 | -78.00996 | 18184 ft | 428 kts | 274° |
| 2026-04-16 02:47 | 26.55926 | -78.04299 | 18186 ft | 428 kts | 274° |
| 2026-04-16 02:47 | 26.56028 | -78.07659 | 18183 ft | 427 kts | 275° |
| 2026-04-16 02:47 | 26.56129 | -78.10969 | 18183 ft | 427 kts | 275° |
| 2026-04-16 02:47 | 26.56228 | -78.14295 | 18183 ft | 427 kts | 275° |
| 2026-04-16 02:48 | 26.56327 | -78.17572 | 18183 ft | 427 kts | 275° |
| 2026-04-16 02:48 | 26.56425 | -78.20897 | 18185 ft | 427 kts | 274° |
| 2026-04-16 02:48 | 26.56521 | -78.24173 | 18183 ft | 426 kts | 274° |
| 2026-04-16 02:48 | 26.56619 | -78.27502 | 18183 ft | 427 kts | 274° |
| 2026-04-16 02:49 | 26.56714 | -78.30808 | 18182 ft | 427 kts | 274° |
| 2026-04-16 02:49 | 26.56809 | -78.34098 | 18183 ft | 427 kts | 274° |
| 2026-04-16 02:49 | 26.56902 | -78.37441 | 18183 ft | 427 kts | 274° |
| 2026-04-16 02:49 | 26.56995 | -78.40734 | 18182 ft | 427 kts | 274° |
| 2026-04-16 02:50 | 26.56960 | -78.44056 | 18185 ft | 428 kts | 269° |
| 2026-04-16 02:50 | 26.56798 | -78.47372 | 18182 ft | 428 kts | 269° |
| 2026-04-16 02:50 | 26.56633 | -78.50687 | 18182 ft | 428 kts | 269° |
| 2026-04-16 02:50 | 26.56467 | -78.53990 | 18183 ft | 428 kts | 269° |
| 2026-04-16 02:51 | 26.56300 | -78.57323 | 18181 ft | 427 kts | 269° |
| 2026-04-16 02:51 | 26.56134 | -78.60594 | 18184 ft | 427 kts | 269° |
| 2026-04-16 02:51 | 26.55964 | -78.63927 | 18186 ft | 427 kts | 269° |
| 2026-04-16 02:51 | 26.55795 | -78.67223 | 18186 ft | 427 kts | 269° |
| 2026-04-16 02:52 | 26.55624 | -78.70548 | 18186 ft | 427 kts | 269° |
| 2026-04-16 02:52 | 26.55453 | -78.73852 | 18189 ft | 427 kts | 269° |
| 2026-04-16 02:52 | 26.55285 | -78.77093 | 18191 ft | 427 kts | 269° |
| 2026-04-16 02:52 | 26.55113 | -78.80401 | 18193 ft | 427 kts | 269° |
| 2026-04-16 02:53 | 26.54940 | -78.83696 | 18186 ft | 427 kts | 269° |
| 2026-04-16 02:53 | 26.54767 | -78.86990 | 18188 ft | 427 kts | 269° |
| 2026-04-16 02:53 | 26.54592 | -78.90303 | 18187 ft | 428 kts | 269° |
| 2026-04-16 02:53 | 26.54416 | -78.93624 | 18188 ft | 428 kts | 269° |
| 2026-04-16 02:54 | 26.54238 | -78.96956 | 18186 ft | 428 kts | 269° |
| 2026-04-16 02:54 | 26.54074 | -79.00036 | 18184 ft | 428 kts | 269° |
| 2026-04-16 02:54 | 26.53992 | -79.03330 | 18185 ft | 425 kts | 273° |
| 2026-04-16 02:54 | 26.54003 | -79.05953 | 18184 ft | 425 kts | 272° |
| 2026-04-16 02:55 | 26.54009 | -79.09020 | 18185 ft | 424 kts | 272° |
| 2026-04-16 02:55 | 26.54014 | -79.12360 | 18178 ft | 425 kts | 272° |
| 2026-04-16 02:55 | 26.54015 | -79.15669 | 18171 ft | 426 kts | 272° |
| 2026-04-16 02:55 | 26.54017 | -79.18979 | 18170 ft | 425 kts | 272° |
| 2026-04-16 02:56 | 26.54017 | -79.22298 | 18169 ft | 425 kts | 272° |
| 2026-04-16 02:56 | 26.54017 | -79.24860 | 18170 ft | 425 kts | 272° |
| 2026-04-16 02:56 | 26.54016 | -79.28130 | 18163 ft | 425 kts | 272° |
| 2026-04-16 02:56 | 26.54014 | -79.31452 | 18166 ft | 424 kts | 272° |
| 2026-04-16 02:57 | 26.54011 | -79.34756 | 18166 ft | 424 kts | 272° |
| 2026-04-16 02:57 | 26.54008 | -79.38065 | 18134 ft | 425 kts | 272° |
| 2026-04-16 02:57 | 26.54003 | -79.41345 | 17826 ft | 417 kts | 272° |
| 2026-04-16 02:57 | 26.53998 | -79.44556 | 16800 ft | 415 kts | 272° |
| 2026-04-16 02:58 | 26.53994 | -79.47769 | 16085 ft | 414 kts | 272° |
| 2026-04-16 02:58 | 26.53987 | -79.51003 | 16002 ft | 413 kts | 272° |
| 2026-04-16 02:58 | 26.53881 | -79.54213 | 15972 ft | 415 kts | 262° |
| 2026-04-16 02:58 | 26.52905 | -79.57265 | 16001 ft | 419 kts | 245° |
| 2026-04-16 02:59 | 26.51548 | -79.60175 | 15990 ft | 421 kts | 244° |
| 2026-04-16 02:59 | 26.50184 | -79.63086 | 15983 ft | 422 kts | 244° |
| 2026-04-16 02:59 | 26.48835 | -79.65964 | 15981 ft | 420 kts | 243° |
| 2026-04-16 02:59 | 26.47483 | -79.68845 | 15979 ft | 420 kts | 244° |
| 2026-04-16 03:00 | 26.46105 | -79.71742 | 15977 ft | 420 kts | 240° |
| 2026-04-16 03:00 | 26.44269 | -79.74301 | 15993 ft | 423 kts | 228° |
| 2026-04-16 03:00 | 26.42275 | -79.76727 | 15982 ft | 423 kts | 228° |
| 2026-04-16 03:00 | 26.40307 | -79.79121 | 15598 ft | 413 kts | 228° |
| 2026-04-16 03:01 | 26.38401 | -79.81499 | 14552 ft | 411 kts | 232° |
| 2026-04-16 03:01 | 26.36766 | -79.84068 | 13548 ft | 407 kts | 236° |
| 2026-04-16 03:01 | 26.35153 | -79.86653 | 12693 ft | 399 kts | 235° |
| 2026-04-16 03:01 | 26.33576 | -79.89174 | 12071 ft | 399 kts | 235° |
| 2026-04-16 03:02 | 26.32062 | -79.91594 | 11993 ft | 396 kts | 235° |
| 2026-04-16 03:02 | 26.30503 | -79.94083 | 11979 ft | 395 kts | 235° |
| 2026-04-16 03:02 | 26.28938 | -79.96582 | 11211 ft | 390 kts | 235° |
| 2026-04-16 03:02 | 26.27399 | -79.99037 | 11027 ft | 390 kts | 235° |
| 2026-04-16 03:03 | 26.25612 | -80.01315 | 10986 ft | 389 kts | 217° |
| 2026-04-16 03:03 | 26.23570 | -80.02523 | 11001 ft | 388 kts | 197° |
| 2026-04-16 03:03 | 26.20954 | -80.03192 | 11006 ft | 388 kts | 191° |
| 2026-04-16 03:03 | 26.18308 | -80.03799 | 10993 ft | 388 kts | 191° |
| 2026-04-16 03:04 | 26.15639 | -80.04410 | 10990 ft | 388 kts | 190° |
| 2026-04-16 03:04 | 26.12986 | -80.05016 | 10980 ft | 385 kts | 190° |
| 2026-04-16 03:04 | 26.10392 | -80.05609 | 10196 ft | 380 kts | 191° |
| 2026-04-16 03:04 | 26.07778 | -80.06205 | 9252 ft | 376 kts | 191° |
| 2026-04-16 03:05 | 26.05235 | -80.06839 | 8379 ft | 371 kts | 192° |
| 2026-04-16 03:05 | 26.02724 | -80.07492 | 8042 ft | 369 kts | 192° |
| 2026-04-16 03:05 | 26.00239 | -80.08137 | 7998 ft | 367 kts | 192° |
| 2026-04-16 03:05 | 25.97727 | -80.08790 | 7982 ft | 360 kts | 192° |
| 2026-04-16 03:06 | 25.95351 | -80.09409 | 7954 ft | 331 kts | 192° |
| 2026-04-16 03:06 | 25.93158 | -80.10010 | 7608 ft | 319 kts | 198° |
| 2026-04-16 03:06 | 25.89774 | -80.13256 | 6060 ft | 324 kts | 227° |
| 2026-04-16 03:07 | 25.88300 | -80.15086 | 5994 ft | 327 kts | 229° |
| 2026-04-16 03:07 | 25.87219 | -80.17368 | 5861 ft | 327 kts | 256° |
| 2026-04-16 03:07 | 25.87157 | -80.19855 | 5110 ft | 326 kts | 283° |
| 2026-04-16 03:07 | 25.87489 | -80.22328 | 4486 ft | 324 kts | 275° |
| 2026-04-16 03:08 | 25.87565 | -80.24731 | 4454 ft | 299 kts | 272° |
| 2026-04-16 03:08 | 25.87557 | -80.26959 | 4394 ft | 278 kts | 270° |
| 2026-04-16 03:08 | 25.87686 | -80.29015 | 4318 ft | 256 kts | 292° |
| 2026-04-16 03:08 | 25.88415 | -80.30724 | 4297 ft | 236 kts | 300° |
| 2026-04-16 03:09 | 25.89139 | -80.32313 | 4122 ft | 227 kts | 297° |
| 2026-04-16 03:09 | 25.89790 | -80.33873 | 4000 ft | 215 kts | 297° |
| 2026-04-16 03:09 | 25.90390 | -80.35329 | 3981 ft | 197 kts | 297° |
| 2026-04-16 03:09 | 25.90952 | -80.36696 | 3756 ft | 193 kts | 297° |
| 2026-04-16 03:10 | 25.91515 | -80.38069 | 3444 ft | 194 kts | 297° |
| 2026-04-16 03:10 | 25.92065 | -80.39417 | 3171 ft | 193 kts | 298° |
| 2026-04-16 03:10 | 25.92623 | -80.40803 | 2998 ft | 194 kts | 297° |
| 2026-04-16 03:10 | 25.93067 | -80.42210 | 2969 ft | 197 kts | 274° |
| 2026-04-16 03:11 | 25.92689 | -80.43648 | 3000 ft | 198 kts | 231° |
| 2026-04-16 03:11 | 25.91726 | -80.44752 | 2987 ft | 196 kts | 215° |
| 2026-04-16 03:11 | 25.90601 | -80.45555 | 2961 ft | 189 kts | 199° |
| 2026-04-16 03:11 | 25.89357 | -80.45815 | 2977 ft | 178 kts | 167° |
| 2026-04-16 03:12 | 25.88170 | -80.45459 | 2978 ft | 174 kts | 150° |
| 2026-04-16 03:12 | 25.87319 | -80.44572 | 2857 ft | 166 kts | 117° |
| 2026-04-16 03:12 | 25.86732 | -80.43460 | 2675 ft | 165 kts | 116° |
| 2026-04-16 03:12 | 25.86160 | -80.42357 | 2441 ft | 163 kts | 115° |
| 2026-04-16 03:13 | 25.85610 | -80.41287 | 2218 ft | 159 kts | 116° |
| 2026-04-16 03:13 | 25.85080 | -80.40257 | 2087 ft | 146 kts | 115° |
| 2026-04-16 03:13 | 25.84596 | -80.39314 | 1837 ft | 133 kts | 114° |
| 2026-04-16 03:13 | 25.84161 | -80.38465 | 1624 ft | 122 kts | 114° |
| 2026-04-16 03:14 | 25.83738 | -80.37640 | 1470 ft | 121 kts | 114° |
| 2026-04-16 03:14 | 25.83318 | -80.36819 | 1318 ft | 124 kts | 114° |
| 2026-04-16 03:14 | 25.82886 | -80.35977 | 1165 ft | 125 kts | 115° |
| 2026-04-16 03:14 | 25.82449 | -80.35125 | 1003 ft | 127 kts | 115° |
| 2026-04-16 03:15 | 25.82015 | -80.34278 | 838 ft | 127 kts | 115° |
| 2026-04-16 03:15 | 25.81579 | -80.33385 | 788 ft | 133 kts | 114° |
| 2026-04-16 03:15 | 25.81119 | -80.32500 | 658 ft | 131 kts | 117° |
| 2026-04-16 03:15 | 25.80662 | -80.31619 | 452 ft | 135 kts | 114° |
| 2026-04-16 03:16 | 25.80172 | -80.30690 | 200 ft | 144 kts | 116° |
| 2026-04-16 03:16 | 25.79690 | -80.29742 | 29 ft | 130 kts | 113° |
| 2026-04-16 03:16 | 25.79306 | -80.28999 | 12 ft | 68 kts | 120° |
| 2026-04-16 03:16 | 25.79201 | -80.28737 | 12 ft | 29 kts | 89° |
| 2026-04-16 03:17 | 25.79253 | -80.28696 | 12 ft | 0 kts | 356° |
| 2026-04-16 03:17 | 25.79260 | -80.28696 | 12 ft | 5 kts | 357° |
| 2026-04-16 03:17 | 25.79361 | -80.28710 | 12 ft | 22 kts | 328° |
| 2026-04-16 03:17 | 25.79489 | -80.28799 | 12 ft | 22 kts | 357° |
| 2026-04-16 03:18 | 25.79643 | -80.28807 | 12 ft | 21 kts | 357° |
| 2026-04-16 03:18 | 25.79750 | -80.28778 | 12 ft | 11 kts | 71° |
| 2026-04-16 03:18 | 25.79771 | -80.28696 | 12 ft | 11 kts | 51° |
| 2026-04-16 03:18 | 25.79790 | -80.28676 | 12 ft | 0 kts | 44° |